Time;durP1;ratioP1;P1;durP2;ratioP2;P2;SDS_P1;SDS_P2;PMS_P1;PMS_P2;Temp;Humidity;BMP_temperature;BMP_pressure;BME280_temperature;BME280_humidity;BME280_pressure;Samples;Min_cycle;Max_cycle;Signal;HPM_P1;HPM_P2
2023/08/05 00:01:26;;;;;;;4.50;4.10;;;;;;;16.22;100.00;97977.94;5065860;28;20193;-77
2023/08/05 00:03:52;;;;;;;5.27;4.83;;;;;;;16.17;100.00;97996.69;5068150;28;20193;-77
2023/08/05 00:06:19;;;;;;;5.47;4.97;;;;;;;16.15;100.00;97996.09;5071612;28;20312;-77
2023/08/05 00:08:45;;;;;;;5.30;4.40;;;;;;;16.16;100.00;97988.88;5073385;28;20591;-77
2023/08/05 00:11:11;;;;;;;6.87;5.13;;;;;;;16.12;100.00;97990.47;5073716;28;20200;-77
2023/08/05 00:13:38;;;;;;;6.90;4.67;;;;;;;16.17;100.00;97991.31;5056484;28;20207;-77
2023/08/05 00:16:06;;;;;;;6.83;5.20;;;;;;;16.11;100.00;98002.25;5053561;28;20208;-77
2023/08/05 00:18:32;;;;;;;6.97;5.17;;;;;;;16.14;100.00;97997.19;5053290;28;20728;-77
2023/08/05 00:20:59;;;;;;;5.27;4.77;;;;;;;16.12;100.00;97993.97;5053523;28;20209;-77
2023/08/05 00:23:25;;;;;;;8.23;5.00;;;;;;;16.10;100.00;97990.72;5063670;28;20208;-77
2023/08/05 00:25:51;;;;;;;6.27;4.43;;;;;;;16.13;100.00;97990.22;5074150;28;20221;-77
2023/08/05 00:28:18;;;;;;;7.73;4.40;;;;;;;16.22;100.00;97999.41;5072405;28;20223;-78
2023/08/05 00:30:44;;;;;;;4.83;4.43;;;;;;;16.07;100.00;98001.97;5066277;28;20200;-78
2023/08/05 00:33:10;;;;;;;4.93;4.40;;;;;;;16.16;100.00;98008.47;5073786;28;20208;-77
2023/08/05 00:35:37;;;;;;;7.20;4.77;;;;;;;16.08;100.00;97997.38;5074025;28;20204;-77
2023/08/05 00:38:03;;;;;;;6.30;4.70;;;;;;;16.07;100.00;97996.59;5073816;28;20204;-77
2023/08/05 00:40:30;;;;;;;4.63;4.23;;;;;;;16.07;100.00;97985.06;5064883;28;20212;-77
2023/08/05 00:42:56;;;;;;;5.43;4.60;;;;;;;16.04;100.00;97983.69;5063066;28;20203;-77
2023/08/05 00:45:23;;;;;;;7.47;4.60;;;;;;;16.09;100.00;97982.91;5054221;28;20225;-77
2023/08/05 00:47:49;;;;;;;5.23;4.30;;;;;;;16.02;100.00;97983.13;5059779;28;20196;-77
2023/08/05 00:50:15;;;;;;;6.07;4.53;;;;;;;16.05;100.00;97979.94;5074027;28;20232;-78
2023/08/05 00:52:43;;;;;;;5.23;4.70;;;;;;;16.06;100.00;97972.72;5053767;28;20574;-78
2023/08/05 00:55:10;;;;;;;6.00;4.27;;;;;;;16.00;100.00;97963.81;5054311;28;20649;-77
2023/08/05 00:57:37;;;;;;;9.17;4.50;;;;;;;16.05;100.00;97957.69;5053753;28;20205;-77
2023/08/05 01:00:04;;;;;;;6.00;4.47;;;;;;;15.92;100.00;97955.44;5054253;28;20564;-78
2023/08/05 01:02:30;;;;;;;5.63;4.73;;;;;;;15.95;100.00;97950.38;5058770;28;20295;-78
2023/08/05 01:04:57;;;;;;;6.57;4.33;;;;;;;15.94;100.00;97956.78;5065153;28;20272;-78
2023/08/05 01:07:24;;;;;;;4.50;4.10;;;;;;;15.98;100.00;97952.53;5058032;28;20566;-77
2023/08/05 01:09:50;;;;;;;7.77;4.60;;;;;;;15.92;100.00;97950.84;5057648;28;20231;-77
2023/08/05 01:12:17;;;;;;;7.47;4.33;;;;;;;15.94;100.00;97954.13;5077364;28;20222;-78
2023/08/05 01:14:45;;;;;;;6.40;4.30;;;;;;;15.93;100.00;97963.19;5077609;28;20208;-77
2023/08/05 01:17:12;;;;;;;6.33;4.43;;;;;;;15.96;100.00;97967.28;5078034;28;20244;-77
2023/08/05 01:19:39;;;;;;;5.70;4.03;;;;;;;15.98;100.00;97970.50;5073565;28;20704;-77
2023/08/05 01:22:37;;;;;;;7.30;4.10;;;;;;;15.95;100.00;97979.84;5072509;28;20201;-77
2023/08/05 01:25:10;;;;;;;5.30;4.20;;;;;;;15.94;100.00;97972.88;5057436;28;20189;-77
2023/08/05 01:27:38;;;;;;;4.60;4.20;;;;;;;15.94;100.00;97977.41;5057136;28;20209;-77
2023/08/05 01:30:05;;;;;;;5.57;4.67;;;;;;;15.97;100.00;97980.41;5056151;28;20225;-77
2023/08/05 01:32:34;;;;;;;5.47;4.60;;;;;;;15.93;100.00;97975.81;5058445;28;20571;-78
2023/08/05 01:35:01;;;;;;;5.97;4.00;;;;;;;15.91;100.00;97972.56;5076538;28;20672;-78
2023/08/05 01:37:27;;;;;;;5.43;4.37;;;;;;;15.89;100.00;97966.66;5077721;28;20200;-78
2023/08/05 01:39:54;;;;;;;7.37;4.43;;;;;;;15.81;100.00;97970.63;5077382;28;20226;-77
2023/08/05 01:42:20;;;;;;;4.97;4.50;;;;;;;15.88;100.00;97973.09;5076867;28;20205;-77
2023/08/05 01:44:46;;;;;;;5.57;4.27;;;;;;;15.97;100.00;97969.66;5072157;28;20206;-77
2023/08/05 01:47:13;;;;;;;7.83;4.87;;;;;;;15.87;100.00;97974.94;5056700;28;20587;-78
2023/08/05 01:49:39;;;;;;;5.93;4.17;;;;;;;15.86;100.00;97984.06;5057034;28;20316;-78
2023/08/05 01:52:06;;;;;;;6.70;4.80;;;;;;;15.84;100.00;97980.81;5057884;28;20208;-77
2023/08/05 01:54:32;;;;;;;6.57;4.53;;;;;;;15.90;100.00;97969.09;5073627;28;20207;-77
2023/08/05 01:56:59;;;;;;;7.00;4.60;;;;;;;15.85;100.00;97977.09;5071307;28;20296;-78
2023/08/05 01:59:25;;;;;;;5.67;4.40;;;;;;;15.83;100.00;97968.47;5056894;28;20221;-77
2023/08/05 02:01:51;;;;;;;4.97;4.43;;;;;;;15.87;100.00;97961.53;5056027;28;20568;-77
2023/08/05 02:04:18;;;;;;;6.17;4.63;;;;;;;15.82;100.00;97960.69;5056877;28;20205;-77
2023/08/05 02:06:44;;;;;;;5.93;3.93;;;;;;;15.80;100.00;97957.47;5057152;28;20228;-77
2023/08/05 02:09:10;;;;;;;5.07;4.07;;;;;;;15.84;100.00;97953.22;5056450;28;20268;-77
2023/08/05 02:11:37;;;;;;;4.97;4.30;;;;;;;15.79;100.00;97950.50;5066674;28;20294;-77
2023/08/05 02:14:03;;;;;;;7.30;4.23;;;;;;;15.82;100.00;97955.31;5076329;28;20201;-77
2023/08/05 02:16:30;;;;;;;6.10;4.03;;;;;;;15.85;100.00;97950.28;5076300;28;20204;-77
2023/08/05 02:18:56;;;;;;;4.90;4.40;;;;;;;15.74;100.00;97959.28;5074430;28;20225;-77
2023/08/05 02:21:23;;;;;;;6.20;4.37;;;;;;;15.82;100.00;97950.78;5076269;28;20574;-77
2023/08/05 02:23:49;;;;;;;7.43;5.20;;;;;;;15.68;100.00;97946.91;5075790;28;20679;-77
2023/08/05 02:26:15;;;;;;;4.93;4.43;;;;;;;15.65;100.00;97942.03;5075475;28;20239;-77
2023/08/05 02:28:42;;;;;;;6.93;4.90;;;;;;;15.68;100.00;97943.41;5065563;28;20304;-77
2023/08/05 02:31:08;;;;;;;4.87;4.37;;;;;;;15.66;100.00;97935.63;5055897;28;20206;-77
2023/08/05 02:33:34;;;;;;;5.27;4.50;;;;;;;15.67;100.00;97931.06;5058435;28;20212;-77
2023/08/05 02:36:01;;;;;;;6.20;4.20;;;;;;;15.69;100.00;97920.91;5075547;28;20295;-77
2023/08/05 02:38:28;;;;;;;5.63;4.20;;;;;;;15.67;100.00;97914.97;5075578;28;20228;-77
2023/08/05 02:40:55;;;;;;;6.17;4.40;;;;;;;15.56;100.00;97910.59;5075896;28;20200;-77
2023/08/05 02:43:21;;;;;;;5.63;4.30;;;;;;;15.44;100.00;97902.72;5064291;28;20201;-77
2023/08/05 02:45:57;;;;;;;6.40;4.77;;;;;;;15.43;100.00;97901.09;5055476;28;20228;-77
2023/08/05 02:48:27;;;;;;;5.40;4.90;;;;;;;15.44;100.00;97902.72;5056502;28;20708;-77
2023/08/05 02:50:55;;;;;;;7.03;4.87;;;;;;;15.38;100.00;97908.28;5057507;28;20676;-77
2023/08/05 02:53:21;;;;;;;5.87;4.67;;;;;;;15.46;100.00;97916.66;5057171;28;20208;-77
2023/08/05 02:55:48;;;;;;;5.97;4.43;;;;;;;15.42;100.00;97914.75;5067194;28;20208;-77
2023/08/05 02:58:15;;;;;;;8.73;4.77;;;;;;;15.43;100.00;97925.19;5074698;28;20208;-77
2023/08/05 03:00:42;;;;;;;6.00;4.90;;;;;;;15.47;100.00;97925.53;5074812;28;20205;-77
2023/08/05 03:03:09;;;;;;;5.37;4.87;;;;;;;15.44;100.00;97936.72;5075210;28;20292;-76
2023/08/05 03:05:35;;;;;;;6.27;4.93;;;;;;;15.35;100.00;97919.50;5074870;28;20212;-77
2023/08/05 03:08:02;;;;;;;6.90;4.83;;;;;;;15.46;100.00;97927.38;5075214;28;20574;-78
2023/08/05 03:10:28;;;;;;;7.63;5.10;;;;;;;15.40;100.00;97925.72;5056287;28;20208;-77
2023/08/05 03:12:55;;;;;;;5.50;5.00;;;;;;;15.31;100.00;97929.88;5054892;28;20205;-77
2023/08/05 03:15:21;;;;;;;6.47;4.77;;;;;;;15.35;100.00;97933.72;5054951;28;20208;-77
2023/08/05 03:17:48;;;;;;;6.13;5.07;;;;;;;15.40;100.00;97955.19;5064482;28;20197;-77
2023/08/05 03:20:29;;;;;;;6.00;5.30;;;;;;;15.42;100.00;97958.41;5074959;28;20220;-77
2023/08/05 03:22:56;;;;;;;7.23;5.03;;;;;;;15.44;100.00;97959.00;5074012;28;20288;-77
2023/08/05 03:25:23;;;;;;;5.70;5.03;;;;;;;15.45;100.00;97965.97;5074209;28;20668;-77
2023/08/05 03:27:50;;;;;;;6.40;5.53;;;;;;;15.41;100.00;97969.38;5064169;28;20213;-77
2023/08/05 03:30:18;;;;;;;5.73;4.83;;;;;;;15.38;100.00;97970.69;5054352;28;20225;-77
2023/08/05 03:32:44;;;;;;;7.47;5.40;;;;;;;15.47;100.00;97974.53;5054933;28;20205;-77
2023/08/05 03:35:11;;;;;;;7.50;5.50;;;;;;;15.47;100.00;97973.75;5053959;28;20215;-77
2023/08/05 03:37:37;;;;;;;7.30;5.53;;;;;;;15.41;100.00;97977.41;5054192;28;20202;-77
2023/08/05 03:40:04;;;;;;;8.23;5.80;;;;;;;15.45;100.00;97968.63;5061725;28;20224;-77
2023/08/05 03:42:31;;;;;;;7.73;5.63;;;;;;;15.40;100.00;97968.59;5054352;28;20212;-77
2023/08/05 03:44:58;;;;;;;5.93;5.33;;;;;;;15.44;100.00;97968.88;5060188;28;20203;-77
2023/08/05 03:47:25;;;;;;;7.27;5.60;;;;;;;15.43;100.00;97978.78;5074323;28;20220;-77
2023/08/05 03:49:51;;;;;;;7.97;5.50;;;;;;;15.47;100.00;97992.50;5070242;28;20221;-77
2023/08/05 03:52:17;;;;;;;7.23;5.07;;;;;;;15.45;100.00;97994.59;5074789;28;20208;-77
2023/08/05 03:54:44;;;;;;;6.70;6.00;;;;;;;15.48;100.00;97994.94;5074283;28;20211;-77
2023/08/05 03:57:10;;;;;;;6.33;4.93;;;;;;;15.54;100.00;97999.28;5074364;28;20207;-78
2023/08/05 03:59:37;;;;;;;5.30;4.80;;;;;;;15.52;100.00;97992.56;5074342;28;20609;-77
2023/08/05 04:02:03;;;;;;;6.13;5.13;;;;;;;15.47;100.00;97997.84;5058908;28;20193;-77
2023/08/05 04:04:30;;;;;;;6.47;5.43;;;;;;;15.54;100.00;97991.25;5067131;28;20327;-77
2023/08/05 04:06:56;;;;;;;6.43;5.37;;;;;;;15.48;100.00;97992.25;5054025;28;20225;-77
2023/08/05 04:09:24;;;;;;;6.60;5.30;;;;;;;15.47;100.00;97985.25;5061814;28;20228;-77
2023/08/05 04:11:51;;;;;;;8.37;5.33;;;;;;;15.44;100.00;97999.16;5074225;28;20204;-77
2023/08/05 04:14:20;;;;;;;6.00;4.97;;;;;;;15.45;100.00;97999.97;5074256;28;20213;-77
2023/08/05 04:16:47;;;;;;;6.07;5.13;;;;;;;15.52;100.00;98004.06;5067208;28;20202;-77
2023/08/05 04:19:14;;;;;;;5.50;5.00;;;;;;;15.60;100.00;97989.44;5053563;28;20771;-77
2023/08/05 04:21:46;;;;;;;5.60;5.07;;;;;;;15.49;100.00;97987.69;5054276;28;20211;-77
2023/08/05 04:24:16;;;;;;;7.10;4.93;;;;;;;15.46;100.00;97991.69;5058251;28;20189;-77
2023/08/05 04:26:42;;;;;;;8.87;5.80;;;;;;;15.43;100.00;97994.06;5073658;28;20219;-77
2023/08/05 04:29:10;;;;;;;7.50;5.37;;;;;;;15.62;100.00;98001.53;5063613;28;20236;-77
2023/08/05 04:31:38;;;;;;;7.70;5.77;;;;;;;15.59;100.00;97987.78;5061945;28;20212;-77
2023/08/05 04:34:04;;;;;;;5.67;5.17;;;;;;;15.46;100.00;97989.00;5074658;28;20204;-77
2023/08/05 04:36:31;;;;;;;5.63;5.10;;;;;;;15.48;100.00;97991.44;5080421;28;20205;-77
2023/08/05 04:38:59;;;;;;;6.83;5.40;;;;;;;15.44;100.00;97996.50;5080210;28;20636;-77
2023/08/05 04:41:25;;;;;;;6.37;5.17;;;;;;;15.52;100.00;97998.72;5068404;28;20237;-77
2023/08/05 04:43:52;;;;;;;9.10;5.73;;;;;;;15.46;100.00;98005.06;5060205;28;20292;-77
2023/08/05 04:46:18;;;;;;;6.80;5.60;;;;;;;15.49;100.00;98011.81;5071902;28;20679;-77
2023/08/05 04:48:45;;;;;;;8.27;5.80;;;;;;;15.47;100.00;98006.69;5077022;28;20247;-76
2023/08/05 04:51:11;;;;;;;7.70;5.77;;;;;;;15.43;100.00;98013.59;5058626;28;20557;-77
2023/08/05 04:53:38;;;;;;;6.60;5.13;;;;;;;15.43;100.00;98013.59;5061544;28;20204;-76
2023/08/05 04:56:04;;;;;;;6.67;4.97;;;;;;;15.43;100.00;98013.59;5068402;28;20200;-77
2023/08/05 04:58:31;;;;;;;7.27;5.87;;;;;;;15.46;100.00;98017.66;5080168;28;20228;-77
2023/08/05 05:00:57;;;;;;;6.23;5.30;;;;;;;15.45;100.00;98018.72;5081082;28;20200;-77
2023/08/05 05:03:25;;;;;;;6.00;5.10;;;;;;;15.38;100.00;98016.22;5080134;28;20207;-77
2023/08/05 05:05:52;;;;;;;6.17;5.53;;;;;;;15.44;100.00;98015.25;5080368;28;20204;-77
2023/08/05 05:08:18;;;;;;;6.67;4.97;;;;;;;15.45;100.00;98016.84;5080272;28;20282;-77
2023/08/05 05:10:47;;;;;;;5.20;4.70;;;;;;;15.45;100.00;98019.53;5080912;28;20281;-77
2023/08/05 05:13:14;;;;;;;5.67;4.90;;;;;;;15.53;100.00;98016.44;5080846;28;20659;-77
2023/08/05 05:15:40;;;;;;;6.20;5.10;;;;;;;15.59;100.00;98022.63;5080794;28;20223;-77
2023/08/05 05:18:07;;;;;;;7.53;5.30;;;;;;;15.57;100.00;98022.91;5080129;28;20204;-77
2023/08/05 05:20:34;;;;;;;7.30;4.70;;;;;;;15.58;100.00;98011.13;5080050;28;20205;-77
2023/08/05 05:23:01;;;;;;;8.67;5.37;;;;;;;15.49;100.00;98009.94;5080071;28;20208;-77
2023/08/05 05:25:27;;;;;;;8.20;5.47;;;;;;;15.59;100.00;98010.06;5080499;28;20227;-77
2023/08/05 05:27:54;;;;;;;6.37;5.30;;;;;;;15.57;100.00;98016.72;5079520;28;20228;-77
2023/08/05 05:30:20;;;;;;;8.77;5.10;;;;;;;15.58;100.00;98019.16;5080046;28;20258;-77
2023/08/05 05:32:46;;;;;;;7.50;5.20;;;;;;;15.56;100.00;98015.91;5080182;28;20201;-77
2023/08/05 05:35:13;;;;;;;6.07;4.47;;;;;;;15.63;100.00;98027.25;5080558;28;20205;-77
2023/08/05 05:37:39;;;;;;;5.73;5.00;;;;;;;15.64;100.00;98025.34;5079988;28;20207;-77
2023/08/05 05:40:06;;;;;;;5.53;5.03;;;;;;;15.63;100.00;98027.25;5079550;28;20224;-77
2023/08/05 05:42:32;;;;;;;7.57;5.00;;;;;;;15.59;100.00;98022.63;5079656;28;20258;-77
2023/08/05 05:45:00;;;;;;;6.43;5.10;;;;;;;15.66;100.00;98020.56;5079971;28;20231;-77
2023/08/05 05:47:26;;;;;;;8.10;5.03;;;;;;;15.70;100.00;98016.34;5075948;28;20303;-77
2023/08/05 05:49:53;;;;;;;6.23;4.83;;;;;;;15.58;100.00;98019.16;5077068;28;20224;-74
2023/08/05 05:52:19;;;;;;;5.10;4.60;;;;;;;15.69;100.00;98010.16;5075874;28;20218;-74
2023/08/05 05:54:45;;;;;;;7.07;4.83;;;;;;;15.67;100.00;98006.94;5076152;28;20204;-74
2023/08/05 05:57:12;;;;;;;7.23;4.93;;;;;;;15.67;100.00;98008.78;5076011;28;20569;-74
2023/08/05 05:59:39;;;;;;;5.67;5.10;;;;;;;15.66;100.00;97997.28;5075916;28;20225;-74
2023/08/05 06:02:07;;;;;;;7.53;5.10;;;;;;;15.66;100.00;97994.59;5075939;28;20257;-74
2023/08/05 06:04:33;;;;;;;5.47;4.57;;;;;;;15.69;100.00;97991.38;5076182;28;20205;-74
2023/08/05 06:07:01;;;;;;;5.33;4.20;;;;;;;15.72;100.00;97990.06;5076276;28;20227;-74
2023/08/05 06:09:28;;;;;;;6.50;4.37;;;;;;;15.74;100.00;98002.16;5075608;28;20224;-74
2023/08/05 06:11:54;;;;;;;6.27;4.50;;;;;;;15.84;100.00;97996.88;5075421;28;20291;-74
2023/08/05 06:14:23;;;;;;;6.53;4.53;;;;;;;15.93;100.00;98000.72;5075889;28;20212;-74
2023/08/05 06:16:50;;;;;;;4.60;4.20;;;;;;;15.84;100.00;98001.47;5075487;28;20720;-74
2023/08/05 06:19:16;;;;;;;6.43;4.57;;;;;;;15.84;100.00;97986.16;5075348;28;20228;-73
2023/08/05 06:21:43;;;;;;;5.77;4.60;;;;;;;15.87;100.00;97991.03;5075301;28;20211;-73
2023/08/05 06:24:09;;;;;;;4.97;4.10;;;;;;;15.93;100.00;97981.97;5074964;28;20672;-74
2023/08/05 06:26:35;;;;;;;5.10;4.60;;;;;;;16.10;100.00;97989.91;5074880;28;20691;-74
2023/08/05 06:29:02;;;;;;;4.63;4.00;;;;;;;16.33;100.00;97995.72;5075635;28;20224;-74
2023/08/05 06:31:28;;;;;;;4.30;3.90;;;;;;;16.49;100.00;97994.81;5075554;28;20209;-74
2023/08/05 06:33:54;;;;;;;5.10;3.67;;;;;;;16.62;100.00;97997.06;5075427;28;20201;-74
2023/08/05 06:36:21;;;;;;;8.67;3.90;;;;;;;16.71;100.00;97998.19;5075424;28;20204;-74
2023/08/05 06:38:47;;;;;;;4.53;3.70;;;;;;;16.69;100.00;98002.19;5074903;28;20707;-74
2023/08/05 06:41:13;;;;;;;8.10;3.97;;;;;;;16.63;100.00;98001.34;5075237;28;20685;-74
2023/08/05 06:43:40;;;;;;;4.23;3.80;;;;;;;16.80;100.00;97991.25;5075234;28;20232;-74
2023/08/05 06:46:06;;;;;;;5.03;3.93;;;;;;;16.68;100.00;97992.50;5075104;28;20299;-74
2023/08/05 06:48:33;;;;;;;5.40;4.07;;;;;;;16.61;100.00;97997.31;5074759;28;20240;-74
2023/08/05 06:50:59;;;;;;;4.73;3.80;;;;;;;16.47;100.00;97999.63;5075118;28;20204;-74
2023/08/05 06:53:25;;;;;;;5.00;4.07;;;;;;;16.64;100.00;97989.53;5075167;28;20207;-74
2023/08/05 06:56:02;;;;;;;7.17;4.60;;;;;;;16.58;100.00;97990.59;5074617;28;20211;-74
2023/08/05 06:58:28;;;;;;;5.40;4.40;;;;;;;16.48;100.00;97989.69;5073419;28;20223;-73
2023/08/05 07:00:55;;;;;;;5.40;3.90;;;;;;;16.79;100.00;97989.63;5074601;28;20663;-73
2023/08/05 07:03:22;;;;;;;5.13;4.03;;;;;;;16.86;100.00;97989.41;5074816;28;20209;-74
2023/08/05 07:05:49;;;;;;;5.00;3.77;;;;;;;16.83;100.00;97985.34;5074388;28;20571;-74
2023/08/05 07:08:15;;;;;;;4.57;4.10;;;;;;;16.61;100.00;97979.31;5074461;28;20234;-73
2023/08/05 07:10:42;;;;;;;4.50;4.10;;;;;;;16.63;100.00;97981.75;5074682;28;20204;-74
2023/08/05 07:13:09;;;;;;;6.50;3.93;;;;;;;16.88;100.00;97981.91;5074887;28;20200;-74
2023/08/05 07:15:36;;;;;;;5.83;4.40;;;;;;;16.82;100.00;97982.94;5074573;28;20210;-74
2023/08/05 07:18:04;;;;;;;5.37;4.17;;;;;;;16.76;100.00;97979.41;5074588;28;20200;-74
2023/08/05 07:20:31;;;;;;;4.23;3.83;;;;;;;16.91;100.00;97978.69;5074428;28;20208;-74
2023/08/05 07:22:57;;;;;;;5.43;4.13;;;;;;;17.20;100.00;97969.94;5074118;28;20218;-74
2023/08/05 07:25:23;;;;;;;4.23;3.73;;;;;;;17.46;100.00;97985.13;5074018;28;20574;-74
2023/08/05 07:27:50;;;;;;;7.03;4.27;;;;;;;17.20;100.00;97996.81;5073828;28;20224;-74
2023/08/05 07:30:16;;;;;;;6.00;3.87;;;;;;;17.40;100.00;97994.25;5074265;28;20301;-75
2023/08/05 07:32:42;;;;;;;4.40;3.60;;;;;;;17.61;100.00;97992.44;5074211;28;20206;-74
2023/08/05 07:35:10;;;;;;;3.77;3.40;;;;;;;17.54;100.00;97987.31;5074254;28;20204;-74
2023/08/05 07:37:36;;;;;;;5.10;3.93;;;;;;;17.56;100.00;97995.91;5073827;28;20205;-74
2023/08/05 07:40:05;;;;;;;5.37;3.70;;;;;;;17.57;100.00;97996.72;5073731;28;20588;-74
2023/08/05 07:42:32;;;;;;;4.80;4.00;;;;;;;17.30;100.00;97986.13;5074147;28;20211;-74
2023/08/05 07:45:04;;;;;;;4.37;3.90;;;;;;;17.68;100.00;97977.66;5073710;28;20208;-74
2023/08/05 07:47:33;;;;;;;4.77;3.97;;;;;;;17.58;100.00;97985.72;5073586;28;20646;-74
2023/08/05 07:50:00;;;;;;;5.03;3.87;;;;;;;17.74;100.00;97976.59;5073425;28;20235;-74
2023/08/05 07:52:27;;;;;;;4.97;3.90;;;;;;;17.66;100.00;97969.06;5074466;28;20307;-73
2023/08/05 07:54:54;;;;;;;3.87;3.50;;;;;;;17.78;100.00;97977.69;5073984;28;20247;-74
2023/08/05 07:57:20;;;;;;;4.83;3.40;;;;;;;17.94;100.00;97976.63;5073752;28;20200;-74
2023/08/05 07:59:47;;;;;;;4.97;3.83;;;;;;;18.13;100.00;97976.91;5073299;28;20227;-74
2023/08/05 08:02:13;;;;;;;4.20;3.43;;;;;;;18.34;100.00;97968.63;5073676;28;20208;-74
2023/08/05 08:04:40;;;;;;;5.23;3.60;;;;;;;18.17;100.00;97978.81;5073948;28;20212;-74
2023/08/05 08:07:08;;;;;;;6.23;3.80;;;;;;;17.81;100.00;97981.72;5073626;28;20227;-74
2023/08/05 08:09:35;;;;;;;5.07;3.43;;;;;;;17.98;100.00;97969.66;5072913;28;20639;-74
2023/08/05 08:12:01;;;;;;;5.63;3.53;;;;;;;18.22;100.00;97968.03;5073572;28;20204;-74
2023/08/05 08:14:27;;;;;;;3.77;3.03;;;;;;;18.02;100.00;97957.28;5074164;28;20215;-74
2023/08/05 08:16:54;;;;;;;5.13;3.77;;;;;;;17.41;100.00;97969.00;5073574;28;20208;-74
2023/08/05 08:19:22;;;;;;;4.00;3.57;;;;;;;17.75;100.00;97963.97;5073122;28;20220;-74
2023/08/05 08:21:49;;;;;;;4.43;3.07;;;;;;;17.99;100.00;97963.19;5073477;28;20205;-74
2023/08/05 08:24:15;;;;;;;4.37;3.20;;;;;;;17.88;100.00;97966.97;5073536;28;20209;-74
2023/08/05 08:26:42;;;;;;;4.00;3.50;;;;;;;17.93;100.00;97958.91;5072981;28;20212;-74
2023/08/05 08:29:08;;;;;;;4.00;3.57;;;;;;;18.14;100.00;97948.94;5073270;28;20224;-74
2023/08/05 08:31:35;;;;;;;5.00;2.80;;;;;;;18.24;100.00;97936.28;5073436;28;20208;-74
2023/08/05 08:34:01;;;;;;;4.70;3.13;;;;;;;17.93;100.00;97940.06;5073236;28;20212;-74
2023/08/05 08:36:28;;;;;;;3.03;2.70;;;;;;;18.17;100.00;97943.81;5072963;28;20574;-74
2023/08/05 08:38:54;;;;;;;4.53;2.80;;;;;;;18.39;100.00;97943.56;5073469;28;20307;-74
2023/08/05 08:41:21;;;;;;;3.40;3.10;;;;;;;18.19;100.00;97949.72;5072958;28;20208;-74
2023/08/05 08:43:48;;;;;;;3.73;2.93;;;;;;;18.48;100.00;97952.69;5072116;28;20200;-74
2023/08/05 08:46:17;;;;;;;3.07;2.33;;;;;;;18.53;100.00;97948.13;5073299;28;20204;-74
2023/08/05 08:48:44;;;;;;;4.33;3.00;;;;;;;18.84;100.00;97938.91;5072594;28;20232;-74
2023/08/05 08:51:13;;;;;;;3.83;2.90;;;;;;;19.06;100.00;97933.16;5073242;28;20258;-74
2023/08/05 08:53:41;;;;;;;4.00;2.70;;;;;;;19.24;100.00;97937.97;5071965;28;20313;-74
2023/08/05 08:56:08;;;;;;;3.77;2.90;;;;;;;18.68;100.00;97940.00;5073902;28;20204;-74
2023/08/05 08:58:34;;;;;;;3.40;3.10;;;;;;;18.62;100.00;97945.69;5072870;28;20227;-74
2023/08/05 09:01:03;;;;;;;3.40;3.10;;;;;;;19.05;100.00;97943.13;5073085;28;20205;-74
2023/08/05 09:03:33;;;;;;;3.60;2.63;;;;;;;18.61;100.00;97934.13;5072967;28;20296;-74
2023/08/05 09:06:00;;;;;;;2.97;2.13;;;;;;;18.97;100.00;97941.03;5073615;28;20195;-75
2023/08/05 09:08:29;;;;;;;3.70;2.30;;;;;;;18.87;100.00;97948.31;5072959;28;20228;-74
2023/08/05 09:10:55;;;;;;;4.70;2.80;;;;;;;19.08;100.00;97939.06;5072948;28;20205;-74
2023/08/05 09:13:22;;;;;;;3.57;2.40;;;;;;;19.25;100.00;97939.56;5072573;28;20682;-74
2023/08/05 09:15:49;;;;;;;4.00;2.57;;;;;;;19.10;100.00;97936.91;5072794;28;20201;-74
2023/08/05 09:18:15;;;;;;;2.70;2.50;;;;;;;19.55;100.00;97934.03;5073935;28;20726;-74
2023/08/05 09:20:42;;;;;;;3.57;2.80;;;;;;;18.50;100.00;97934.41;5073071;28;20239;-74
2023/08/05 09:23:10;;;;;;;3.10;2.80;;;;;;;18.65;100.00;97934.38;5076104;28;20211;-74
2023/08/05 09:25:47;;;;;;;3.17;2.43;;;;;;;19.31;100.00;97931.19;5076286;28;20205;-74
2023/08/05 09:28:14;;;;;;;3.47;2.67;;;;;;;19.31;99.40;97941.16;5076781;28;20265;-74
2023/08/05 09:30:40;;;;;;;3.10;2.80;;;;;;;19.02;96.69;97932.91;5075988;28;20295;-74
2023/08/05 09:33:07;;;;;;;2.87;2.37;;;;;;;19.32;97.74;97919.31;5076320;28;20207;-74
2023/08/05 09:35:33;;;;;;;4.60;2.50;;;;;;;19.43;96.44;97922.75;5076155;28;20204;-74
2023/08/05 09:38:01;;;;;;;2.57;2.30;;;;;;;19.28;95.96;97920.94;5076063;28;20755;-74
2023/08/05 09:40:32;;;;;;;2.40;2.20;;;;;;;19.28;97.48;97918.25;5076264;28;20209;-74
2023/08/05 09:42:59;;;;;;;2.50;2.30;;;;;;;19.68;95.31;97920.72;5075824;28;20628;-74
2023/08/05 09:45:28;;;;;;;2.00;1.90;;;;;;;19.83;96.27;97924.38;5076220;28;20573;-74
2023/08/05 09:48:03;;;;;;;2.57;2.37;;;;;;;19.23;94.38;97914.78;5075925;28;20224;-74
2023/08/05 09:50:30;;;;;;;2.43;2.23;;;;;;;19.30;95.47;97908.00;5076215;28;20200;-74
2023/08/05 09:52:59;;;;;;;3.27;1.90;;;;;;;19.27;98.35;97905.06;5076131;28;20200;-74
2023/08/05 09:55:27;;;;;;;2.90;2.20;;;;;;;19.39;98.33;97906.34;5075773;28;20235;-74
2023/08/05 09:57:55;;;;;;;2.20;2.00;;;;;;;19.21;97.35;97898.88;5075562;28;20575;-74
2023/08/05 10:00:22;;;;;;;2.23;1.90;;;;;;;19.26;93.36;97906.94;5075714;28;20224;-75
2023/08/05 10:02:49;;;;;;;3.43;1.93;;;;;;;19.21;95.58;97900.75;5075607;28;20579;-74
2023/08/05 10:05:15;;;;;;;2.60;1.93;;;;;;;19.55;89.81;97902.44;5075843;28;20218;-74
2023/08/05 10:07:43;;;;;;;2.57;2.10;;;;;;;19.88;93.13;97900.06;5075753;28;20236;-74
2023/08/05 10:10:12;;;;;;;2.07;1.80;;;;;;;20.05;91.26;97905.88;5075823;28;20311;-74
2023/08/05 10:12:56;;;;;;;2.40;1.80;;;;;;;20.27;83.69;97903.56;5076062;28;20204;-74
2023/08/05 10:15:26;;;;;;;3.47;1.80;;;;;;;19.84;90.08;97904.44;5075896;28;20197;-74
2023/08/05 10:17:53;;;;;;;3.97;1.60;;;;;;;19.71;87.38;97895.06;5075758;28;20189;-74
2023/08/05 10:20:20;;;;;;;1.77;1.67;;;;;;;19.89;87.59;97897.09;5074509;28;20224;-74
2023/08/05 10:23:08;;;;;;;2.47;1.80;;;;;;;19.85;81.43;97900.66;5075654;28;20205;-74
2023/08/05 10:26:01;;;;;;;1.57;1.47;;;;;;;20.25;80.01;97900.34;5074946;28;20671;-74
2023/08/05 10:28:38;;;;;;;1.70;1.60;;;;;;;20.57;82.41;97889.75;5074777;28;20273;-75
2023/08/05 10:31:06;;;;;;;2.73;1.93;;;;;;;20.11;83.66;97885.91;5075092;28;20628;-74
2023/08/05 10:33:33;;;;;;;2.60;1.70;;;;;;;20.52;83.08;97882.50;5075068;28;20204;-75
2023/08/05 10:36:06;;;;;;;1.90;1.70;;;;;;;20.15;83.81;97876.13;5075755;28;20611;-74
2023/08/05 10:38:42;;;;;;;2.50;1.50;;;;;;;20.40;84.23;97881.28;5075112;28;20307;-74
2023/08/05 10:41:10;;;;;;;1.83;1.73;;;;;;;20.62;77.76;97874.28;5075279;28;20286;-74
2023/08/05 10:43:38;;;;;;;2.03;1.70;;;;;;;20.48;76.82;97883.38;5075234;28;20201;-74
2023/08/05 10:46:08;;;;;;;2.83;2.00;;;;;;;20.63;82.33;97875.91;5075149;28;20201;-74
2023/08/05 10:48:37;;;;;;;2.10;1.90;;;;;;;19.82;82.90;97871.53;5074629;28;20692;-74
2023/08/05 10:51:12;;;;;;;1.73;1.60;;;;;;;20.02;77.79;97874.84;5075142;28;20220;-74
2023/08/05 10:53:39;;;;;;;1.60;1.50;;;;;;;19.94;80.14;97874.66;5074560;28;20214;-74
2023/08/05 10:56:12;;;;;;;1.50;1.40;;;;;;;20.05;83.36;97860.81;5074865;28;20212;-75
2023/08/05 10:58:48;;;;;;;1.60;1.50;;;;;;;19.82;76.89;97858.03;5074709;28;20217;-75
2023/08/05 11:01:14;;;;;;;2.13;1.30;;;;;;;20.11;77.74;97854.28;5075093;28;20318;-74
2023/08/05 11:03:43;;;;;;;2.87;2.07;;;;;;;20.29;79.76;97858.16;5074647;28;20210;-74
2023/08/05 11:06:11;;;;;;;2.07;1.93;;;;;;;20.18;80.75;97856.66;5074316;28;20232;-74
2023/08/05 11:08:38;;;;;;;2.30;2.00;;;;;;;19.99;83.12;97855.72;5074255;28;20235;-74
2023/08/05 11:11:07;;;;;;;2.73;2.07;;;;;;;19.82;81.72;97852.63;5074396;28;20204;-75
2023/08/05 11:13:35;;;;;;;2.63;1.90;;;;;;;19.64;81.80;97841.44;5074387;28;20200;-74
2023/08/05 11:16:13;;;;;;;3.50;2.10;;;;;;;19.89;86.33;97851.22;5074491;28;20209;-74
2023/08/05 11:18:41;;;;;;;2.97;2.57;;;;;;;20.15;82.98;97841.84;5074435;28;20220;-74
2023/08/05 11:21:13;;;;;;;2.17;2.00;;;;;;;20.11;83.55;97840.81;5074341;28;20208;-75
2023/08/05 11:23:41;;;;;;;2.63;2.23;;;;;;;20.07;83.85;97828.94;5074445;28;20216;-74
2023/08/05 11:26:08;;;;;;;2.72;2.35;;;;;;;19.98;84.09;97832.53;5073773;28;20412;-74
2023/08/05 11:28:35;;;;;;;2.00;1.90;;;;;;;20.10;83.82;97822.19;5074063;28;20232;-75